createdAt,value
2022-12-17T00:00:06.717Z,0.13
2022-12-17T00:01:47.143Z,0.14
2022-12-17T00:03:07.871Z,0.14
2022-12-17T00:04:28.141Z,0.16
2022-12-17T00:05:48.461Z,0.19
2022-12-17T00:07:08.374Z,0.20
2022-12-17T00:08:29.068Z,0.23
2022-12-17T00:09:50.495Z,0.25
2022-12-17T00:11:10.668Z,0.22
2022-12-17T00:12:30.857Z,0.22
2022-12-17T00:13:51.641Z,0.18
2022-12-17T00:15:12.183Z,0.16
2022-12-17T00:16:32.593Z,0.16
2022-12-17T00:17:52.929Z,0.16
2022-12-17T00:19:14.983Z,0.18
2022-12-17T00:20:34.999Z,0.19
2022-12-17T00:21:56.284Z,0.20
2022-12-17T00:23:23.105Z,0.19
2022-12-17T00:24:43.853Z,0.16
2022-12-17T00:26:12.843Z,0.16
2022-12-17T00:27:33.170Z,0.17
2022-12-17T00:28:53.391Z,0.16
2022-12-17T00:30:15.590Z,0.15
2022-12-17T00:31:35.891Z,0.12
2022-12-17T00:32:56.184Z,0.10
2022-12-17T00:34:16.829Z,0.08
2022-12-17T00:35:37.743Z,0.07
2022-12-17T00:36:57.737Z,0.04
2022-12-17T00:38:19.374Z,-0.00
2022-12-17T00:39:39.816Z,-0.01
2022-12-17T00:41:00.749Z,0.00
2022-12-17T00:42:20.969Z,0.03
2022-12-17T00:43:41.412Z,0.04
2022-12-17T00:45:02.074Z,0.03
2022-12-17T00:46:22.605Z,0.00
2022-12-17T00:47:42.792Z,-0.01
2022-12-17T00:49:04.414Z,-0.02
2022-12-17T00:50:25.288Z,-0.01
2022-12-17T00:51:46.175Z,0.03
2022-12-17T00:53:06.848Z,0.03
2022-12-17T00:54:27.344Z,0.00
2022-12-17T00:55:47.712Z,-0.01
2022-12-17T00:57:08.010Z,-0.01
2022-12-17T00:58:28.605Z,0.01
2022-12-17T00:59:49.076Z,0.02
2022-12-17T01:01:09.469Z,0.05
2022-12-17T01:02:30.023Z,0.05
2022-12-17T01:03:52.457Z,0.04
2022-12-17T01:05:12.557Z,0.05
2022-12-17T01:06:33.005Z,0.09
2022-12-17T01:07:54.841Z,0.10
2022-12-17T01:09:16.865Z,0.09
2022-12-17T01:10:36.962Z,0.09
2022-12-17T01:11:57.093Z,0.06
2022-12-17T01:13:17.402Z,0.00
2022-12-17T01:14:37.575Z,-0.03
2022-12-17T01:15:57.950Z,-0.03
2022-12-17T01:17:18.529Z,-0.03
2022-12-17T01:18:39.249Z,-0.06
2022-12-17T01:19:59.627Z,-0.11
2022-12-17T01:21:19.855Z,-0.13
2022-12-17T01:22:40.038Z,-0.10
2022-12-17T01:24:00.645Z,-0.06
2022-12-17T01:25:20.950Z,-0.05
2022-12-17T01:26:41.171Z,-0.06
2022-12-17T01:28:01.386Z,-0.06
2022-12-17T01:29:21.981Z,-0.04
2022-12-17T01:30:42.193Z,-0.05
2022-12-17T01:32:04.802Z,-0.10
2022-12-17T01:33:28.233Z,-0.11
2022-12-17T01:34:49.343Z,-0.12
2022-12-17T01:36:16.643Z,-0.12
2022-12-17T01:37:37.064Z,-0.14
2022-12-17T01:38:57.518Z,-0.17
2022-12-17T01:40:18.178Z,-0.22
2022-12-17T01:41:38.644Z,-0.28
2022-12-17T01:43:02.068Z,-0.29
2022-12-17T01:45:00.544Z,-0.30
2022-12-17T01:46:21.180Z,-0.30
2022-12-17T01:48:06.428Z,-0.31
2022-12-17T01:49:28.770Z,-0.29
2022-12-17T01:50:57.822Z,-0.31
2022-12-17T01:52:18.947Z,-0.31
2022-12-17T01:53:43.584Z,-0.33
2022-12-17T01:55:05.001Z,-0.36
2022-12-17T01:56:25.999Z,-0.36
2022-12-17T01:57:47.554Z,-0.37
2022-12-17T01:59:07.731Z,-0.38
2022-12-17T02:00:32.069Z,-0.37
2022-12-17T02:01:52.944Z,-0.36
2022-12-17T02:03:14.242Z,-0.36
2022-12-17T02:04:34.576Z,-0.38
2022-12-17T02:06:08.552Z,-0.39
2022-12-17T02:07:48.332Z,-0.41
2022-12-17T02:09:11.774Z,-0.41
2022-12-17T02:10:42.257Z,-0.42
2022-12-17T02:12:41.321Z,-0.43
2022-12-17T02:14:13.530Z,-0.45
2022-12-17T02:15:52.855Z,-0.48
2022-12-17T02:17:18.383Z,-0.51
2022-12-17T02:18:50.056Z,-0.54
2022-12-17T02:20:41.068Z,-0.56
2022-12-17T02:22:02.583Z,-0.57
2022-12-17T02:36:42.015Z,-0.76
2022-12-17T02:38:06.845Z,-0.72
2022-12-17T02:39:27.266Z,-0.71
2022-12-17T02:40:47.727Z,-0.70
2022-12-17T02:42:11.328Z,-0.70
2022-12-17T02:43:31.957Z,-0.70
2022-12-17T02:44:53.345Z,-0.67
2022-12-17T02:46:14.687Z,-0.67
2022-12-17T02:47:38.238Z,-0.64
2022-12-17T02:48:59.336Z,-0.60
2022-12-17T02:50:21.769Z,-0.57
2022-12-17T02:51:44.303Z,-0.57
2022-12-17T02:53:06.687Z,-0.57
2022-12-17T02:54:27.181Z,-0.57
2022-12-17T02:55:47.547Z,-0.53
2022-12-17T02:57:07.916Z,-0.51
2022-12-17T02:58:28.183Z,-0.49
2022-12-17T02:59:48.703Z,-0.48
2022-12-17T03:01:09.194Z,-0.47
2022-12-17T03:02:30.208Z,-0.49
2022-12-17T03:03:50.725Z,-0.50
2022-12-17T03:05:42.687Z,-0.49
2022-12-17T03:06:51.966Z,-0.47
2022-12-17T03:08:14.127Z,-0.45
2022-12-17T03:09:34.484Z,-0.43
2022-12-17T03:10:55.102Z,-0.42
2022-12-17T03:12:15.241Z,-0.42
2022-12-17T03:13:46.546Z,-0.43
2022-12-17T03:15:07.356Z,-0.45
2022-12-17T03:16:37.070Z,-0.45
2022-12-17T03:17:57.522Z,-0.47
2022-12-17T03:19:17.836Z,-0.49
2022-12-17T03:20:38.352Z,-0.52
2022-12-17T03:22:00.041Z,-0.54
2022-12-17T03:23:28.704Z,-0.55
2022-12-17T03:24:49.575Z,-0.56
2022-12-17T03:26:10.033Z,-0.58
2022-12-17T03:27:31.037Z,-0.61
2022-12-17T03:28:51.387Z,-0.65
2022-12-17T03:30:11.598Z,-0.65
2022-12-17T03:31:31.692Z,-0.65
2022-12-17T03:32:52.154Z,-0.64
2022-12-17T03:34:12.365Z,-0.67
2022-12-17T03:35:32.400Z,-0.71
2022-12-17T03:36:53.079Z,-0.73
2022-12-17T03:38:13.177Z,-0.74
2022-12-17T03:39:33.081Z,-0.77
2022-12-17T03:40:53.224Z,-0.79
2022-12-17T03:42:13.645Z,-0.82
2022-12-17T03:43:33.999Z,-0.86
2022-12-17T03:44:54.561Z,-0.89
2022-12-17T03:46:15.377Z,-0.89
2022-12-17T03:47:36.259Z,-0.89
2022-12-17T03:48:56.802Z,-0.88
2022-12-17T03:50:17.051Z,-0.86
2022-12-17T03:51:36.947Z,-0.84
2022-12-17T03:52:57.075Z,-0.79
2022-12-17T03:54:17.349Z,-0.76
2022-12-17T03:55:37.226Z,-0.74
2022-12-17T03:56:57.272Z,-0.72
2022-12-17T03:58:17.751Z,-0.70
2022-12-17T03:59:38.120Z,-0.70
2022-12-17T04:00:58.348Z,-0.70
2022-12-17T04:02:18.419Z,-0.68
2022-12-17T04:03:39.839Z,-0.67
2022-12-17T04:05:00.787Z,-0.68
2022-12-17T04:06:21.184Z,-0.68
2022-12-17T04:07:41.641Z,-0.66
2022-12-17T04:09:01.951Z,-0.64
2022-12-17T04:10:22.507Z,-0.62
2022-12-17T04:11:42.582Z,-0.61
2022-12-17T04:13:02.930Z,-0.58
2022-12-17T04:14:23.501Z,-0.56
2022-12-17T04:15:43.605Z,-0.55
2022-12-17T04:17:03.897Z,-0.57
2022-12-17T04:18:23.712Z,-0.56
2022-12-17T04:19:44.097Z,-0.56
2022-12-17T04:21:04.311Z,-0.58
2022-12-17T04:22:24.589Z,-0.56
2022-12-17T04:23:44.842Z,-0.55
2022-12-17T04:25:05.265Z,-0.56
2022-12-17T04:26:25.409Z,-0.58
2022-12-17T04:27:45.329Z,-0.57
2022-12-17T04:29:05.519Z,-0.57
2022-12-17T04:30:26.766Z,-0.63
2022-12-17T04:31:47.141Z,-0.68
2022-12-17T04:33:06.959Z,-0.67
2022-12-17T04:34:27.124Z,-0.70
2022-12-17T04:35:47.554Z,-0.71
2022-12-17T04:37:07.971Z,-0.73
2022-12-17T04:38:28.207Z,-0.78
2022-12-17T04:39:48.692Z,-0.80
2022-12-17T04:41:08.998Z,-0.82
2022-12-17T04:42:29.428Z,-0.83
2022-12-17T04:43:49.659Z,-0.85
2022-12-17T04:45:09.555Z,-0.85
2022-12-17T04:46:30.171Z,-0.88
2022-12-17T04:47:50.597Z,-0.88
2022-12-17T04:49:10.683Z,-0.85
2022-12-17T04:50:30.550Z,-0.84
2022-12-17T04:51:50.775Z,-0.86
2022-12-17T04:53:19.144Z,-0.88
2022-12-17T04:54:39.394Z,-0.91
2022-12-17T04:55:59.701Z,-0.91
2022-12-17T04:57:20.104Z,-0.91
2022-12-17T04:58:40.628Z,-0.91
2022-12-17T05:00:00.530Z,-0.93
2022-12-17T05:01:20.695Z,-0.95
2022-12-17T05:02:42.757Z,-0.95
2022-12-17T05:04:03.228Z,-0.96
2022-12-17T05:05:24.066Z,-0.92
2022-12-17T05:06:44.000Z,-0.92
2022-12-17T05:08:04.339Z,-0.93
2022-12-17T05:09:24.565Z,-0.92
2022-12-17T05:10:44.519Z,-0.91
2022-12-17T05:12:04.446Z,-0.87
2022-12-17T05:13:24.766Z,-0.87
2022-12-17T05:14:45.176Z,-0.87
2022-12-17T05:16:05.597Z,-0.88
2022-12-17T05:17:25.845Z,-0.90
2022-12-17T05:18:46.213Z,-0.92
2022-12-17T05:20:06.253Z,-0.90
2022-12-17T05:21:30.577Z,-0.90
2022-12-17T05:22:53.546Z,-0.91
2022-12-17T05:24:14.051Z,-0.90
2022-12-17T05:25:34.270Z,-0.89
2022-12-17T05:26:54.461Z,-0.86
2022-12-17T05:28:17.391Z,-0.83
2022-12-17T05:29:37.715Z,-0.80
2022-12-17T05:30:57.977Z,-0.78
2022-12-17T05:32:18.193Z,-0.77
2022-12-17T05:33:38.736Z,-0.78
2022-12-17T05:34:59.239Z,-0.79
2022-12-17T05:36:20.053Z,-0.80
2022-12-17T05:37:40.558Z,-0.81
2022-12-17T05:39:00.790Z,-0.82
2022-12-17T05:40:21.802Z,-0.86
2022-12-17T05:41:42.208Z,-0.88
2022-12-17T05:43:13.122Z,-0.90
2022-12-17T05:44:33.088Z,-0.91
2022-12-17T05:45:53.097Z,-0.95
2022-12-17T05:47:13.311Z,-0.98
2022-12-17T05:48:33.327Z,-1.01
2022-12-17T05:49:53.631Z,-1.00
2022-12-17T05:51:16.673Z,-0.96
2022-12-17T05:52:36.814Z,-0.95
2022-12-17T05:53:56.764Z,-0.94
2022-12-17T05:55:16.761Z,-0.95
2022-12-17T05:56:37.059Z,-0.95
2022-12-17T05:57:57.554Z,-0.94
2022-12-17T05:59:17.636Z,-0.90
2022-12-17T06:00:37.758Z,-0.87
2022-12-17T06:01:58.224Z,-0.82
2022-12-17T06:03:21.111Z,-0.80
2022-12-17T06:04:41.771Z,-0.80
2022-12-17T06:06:02.266Z,-0.80
2022-12-17T06:07:22.721Z,-0.80
2022-12-17T06:08:42.836Z,-0.81
2022-12-17T06:10:02.982Z,-0.86
2022-12-17T06:11:23.303Z,-0.89
2022-12-17T06:12:43.532Z,-0.90
2022-12-17T06:14:04.957Z,-0.91
2022-12-17T06:15:25.710Z,-0.89
2022-12-17T06:16:46.061Z,-0.85
2022-12-17T06:18:16.907Z,-0.79
2022-12-17T06:19:37.616Z,-0.78
2022-12-17T06:20:58.029Z,-0.80
2022-12-17T06:22:18.836Z,-0.83
2022-12-17T06:23:39.346Z,-0.85
2022-12-17T06:24:59.533Z,-0.86
2022-12-17T06:26:19.825Z,-0.86
2022-12-17T06:27:39.834Z,-0.86
2022-12-17T06:29:00.973Z,-0.85
2022-12-17T06:30:21.710Z,-0.83
2022-12-17T06:31:41.865Z,-0.82
2022-12-17T06:33:02.065Z,-0.80
2022-12-17T06:34:22.306Z,-0.79
2022-12-17T06:35:42.699Z,-0.77
2022-12-17T06:37:03.544Z,-0.74
2022-12-17T06:38:23.946Z,-0.73
2022-12-17T06:39:44.429Z,-0.73
2022-12-17T06:41:04.735Z,-0.73
2022-12-17T06:42:24.650Z,-0.73
2022-12-17T06:43:45.117Z,-0.72
2022-12-17T06:45:05.645Z,-0.69
2022-12-17T06:46:26.128Z,-0.68
2022-12-17T06:47:46.481Z,-0.67
2022-12-17T06:49:06.969Z,-0.65
2022-12-17T06:50:27.343Z,-0.63
2022-12-17T06:51:47.793Z,-0.63
2022-12-17T06:53:19.767Z,-0.63
2022-12-17T06:54:40.091Z,-0.67
2022-12-17T06:56:00.450Z,-0.69
2022-12-17T06:57:20.453Z,-0.72
2022-12-17T06:58:40.913Z,-0.73
2022-12-17T07:00:01.189Z,-0.73
2022-12-17T07:01:21.858Z,-0.70
2022-12-17T07:02:42.433Z,-0.67
2022-12-17T07:04:03.041Z,-0.71
2022-12-17T07:05:23.550Z,-0.74
2022-12-17T07:06:43.911Z,-0.71
2022-12-17T07:08:04.038Z,-0.69
2022-12-17T07:09:24.429Z,-0.70
2022-12-17T07:10:44.815Z,-0.71
2022-12-17T07:12:05.579Z,-0.69
2022-12-17T07:13:27.109Z,-0.69
2022-12-17T07:14:47.545Z,-0.68
2022-12-17T07:16:09.378Z,-0.69
2022-12-17T07:17:30.651Z,-0.67
2022-12-17T07:18:50.799Z,-0.64
2022-12-17T07:20:10.910Z,-0.61
2022-12-17T07:21:30.936Z,-0.59
2022-12-17T07:22:51.067Z,-0.56
2022-12-17T07:24:11.535Z,-0.53
2022-12-17T07:25:31.877Z,-0.51
2022-12-17T07:26:52.137Z,-0.50
2022-12-17T07:28:13.752Z,-0.49
2022-12-17T07:29:33.880Z,-0.46
2022-12-17T07:30:55.860Z,-0.45
2022-12-17T07:32:16.356Z,-0.45
2022-12-17T07:33:37.101Z,-0.45
2022-12-17T07:34:59.217Z,-0.45
2022-12-17T07:36:19.410Z,-0.46
2022-12-17T07:37:39.303Z,-0.45
2022-12-17T07:38:59.553Z,-0.44
2022-12-17T07:40:20.052Z,-0.42
2022-12-17T07:41:40.637Z,-0.40
2022-12-17T07:43:01.504Z,-0.39
2022-12-17T07:44:21.967Z,-0.39
2022-12-17T07:45:42.122Z,-0.38
2022-12-17T07:47:02.461Z,-0.38
2022-12-17T07:48:23.146Z,-0.37
2022-12-17T07:49:43.555Z,-0.38
2022-12-17T07:51:08.412Z,-0.40
2022-12-17T07:52:28.463Z,-0.39
2022-12-17T07:53:48.598Z,-0.40
2022-12-17T07:55:08.784Z,-0.39
2022-12-17T07:56:29.265Z,-0.38
2022-12-17T07:57:49.499Z,-0.39
2022-12-17T07:59:09.754Z,-0.40
2022-12-17T08:00:31.127Z,-0.40
2022-12-17T08:01:51.344Z,-0.40
2022-12-17T08:03:18.893Z,-0.41
2022-12-17T08:04:38.840Z,-0.40
2022-12-17T08:05:59.154Z,-0.39
2022-12-17T08:07:19.299Z,-0.39
2022-12-17T08:08:39.237Z,-0.41
2022-12-17T08:09:59.297Z,-0.42
2022-12-17T08:11:19.887Z,-0.44
2022-12-17T08:12:40.289Z,-0.44
2022-12-17T08:14:00.518Z,-0.44
2022-12-17T08:15:20.614Z,-0.44
2022-12-17T08:16:41.167Z,-0.44
2022-12-17T08:18:01.539Z,-0.44
2022-12-17T08:19:21.973Z,-0.41
2022-12-17T08:20:42.165Z,-0.39
2022-12-17T08:22:02.559Z,-0.36
2022-12-17T08:23:24.215Z,-0.33
2022-12-17T08:24:44.226Z,-0.31
2022-12-17T08:26:04.476Z,-0.29
2022-12-17T08:27:25.075Z,-0.27
2022-12-17T08:28:52.630Z,-0.27
2022-12-17T08:30:12.965Z,-0.28
2022-12-17T08:31:33.378Z,-0.27
2022-12-17T08:32:53.659Z,-0.28
2022-12-17T08:34:13.936Z,-0.28
2022-12-17T08:35:34.130Z,-0.28
2022-12-17T08:36:54.612Z,-0.27
2022-12-17T08:38:24.724Z,-0.26
2022-12-17T08:39:45.063Z,-0.24
2022-12-17T08:41:05.641Z,-0.23
2022-12-17T08:42:25.773Z,-0.20
2022-12-17T08:43:46.061Z,-0.17
2022-12-17T08:45:06.327Z,-0.12
2022-12-17T08:46:26.397Z,-0.06
2022-12-17T08:47:46.699Z,-0.02
2022-12-17T08:49:07.305Z,0.01
2022-12-17T08:50:27.673Z,0.05
2022-12-17T08:51:47.778Z,0.04
2022-12-17T08:53:07.911Z,0.07
2022-12-17T08:54:28.675Z,0.12
2022-12-17T08:55:49.026Z,0.16
2022-12-17T08:57:09.579Z,0.18
2022-12-17T08:58:29.918Z,0.23
2022-12-17T08:59:50.399Z,0.26
2022-12-17T09:01:11.088Z,0.28
2022-12-17T09:02:31.425Z,0.29
2022-12-17T09:03:51.759Z,0.30
2022-12-17T09:05:23.106Z,0.30
2022-12-17T09:06:43.442Z,0.31
2022-12-17T09:08:03.611Z,0.30
2022-12-17T09:09:24.164Z,0.27
2022-12-17T09:10:44.828Z,0.26
2022-12-17T09:12:05.061Z,0.27
2022-12-17T09:13:25.186Z,0.24
2022-12-17T09:14:45.625Z,0.24
2022-12-17T09:16:13.983Z,0.24
2022-12-17T09:17:34.288Z,0.21
2022-12-17T09:18:54.460Z,0.20
2022-12-17T09:20:14.498Z,0.21
2022-12-17T09:21:34.953Z,0.21
2022-12-17T09:22:55.253Z,0.20
2022-12-17T09:24:15.155Z,0.19
2022-12-17T09:25:35.411Z,0.21
2022-12-17T09:26:55.893Z,0.19
2022-12-17T09:28:20.253Z,0.19
2022-12-17T09:29:40.418Z,0.17
2022-12-17T09:31:00.502Z,0.16
2022-12-17T09:32:20.909Z,0.15
2022-12-17T09:33:41.245Z,0.14
2022-12-17T09:35:01.132Z,0.13
2022-12-17T09:36:23.178Z,0.12
2022-12-17T09:37:43.926Z,0.15
2022-12-17T09:39:04.028Z,0.17
2022-12-17T09:40:24.761Z,0.20
2022-12-17T09:41:55.137Z,0.24
2022-12-17T09:43:23.565Z,0.28
2022-12-17T09:45:09.047Z,0.34
2022-12-17T09:46:36.497Z,0.39
2022-12-17T09:47:56.713Z,0.45
2022-12-17T09:49:23.248Z,0.51
2022-12-17T09:50:43.912Z,0.56
2022-12-17T09:52:04.960Z,0.60
2022-12-17T09:53:39.663Z,0.67
2022-12-17T09:55:04.783Z,0.75
2022-12-17T09:56:28.543Z,0.80
2022-12-17T09:57:52.190Z,0.85
2022-12-17T09:59:12.355Z,0.90
2022-12-17T10:00:39.249Z,0.94
2022-12-17T10:02:00.089Z,0.96
2022-12-17T10:03:22.595Z,0.99
2022-12-17T10:04:45.896Z,1.04
2022-12-17T10:06:07.572Z,1.07
2022-12-17T10:07:33.483Z,1.09
2022-12-17T10:09:01.131Z,1.13
2022-12-17T10:10:37.625Z,1.17
2022-12-17T10:11:57.753Z,1.23
2022-12-17T10:13:18.092Z,1.28
2022-12-17T10:14:44.330Z,1.32
2022-12-17T10:16:06.252Z,1.35
2022-12-17T10:17:35.141Z,1.38
2022-12-17T10:18:56.905Z,1.41
2022-12-17T10:20:17.662Z,1.41
2022-12-17T10:21:37.946Z,1.43
2022-12-17T10:23:03.816Z,1.42
2022-12-17T10:24:26.131Z,1.43
2022-12-17T10:25:46.507Z,1.46
2022-12-17T10:27:06.844Z,1.46
2022-12-17T10:28:39.099Z,1.47
2022-12-17T10:30:02.529Z,1.48
2022-12-17T10:31:29.992Z,1.49
2022-12-17T10:32:50.082Z,1.51
2022-12-17T10:34:16.410Z,1.54
2022-12-17T10:35:45.283Z,1.52
2022-12-17T10:37:11.712Z,1.53
2022-12-17T10:38:39.030Z,1.55
2022-12-17T10:40:00.393Z,1.60
2022-12-17T10:41:20.909Z,1.61
2022-12-17T10:42:45.733Z,1.61
2022-12-17T10:44:06.062Z,1.63
2022-12-17T10:45:43.573Z,1.64
2022-12-17T10:47:04.165Z,1.67
2022-12-17T10:48:42.894Z,1.67
2022-12-17T10:50:02.848Z,1.65
2022-12-17T10:51:23.813Z,1.63
2022-12-17T10:52:50.136Z,1.63
2022-12-17T10:54:11.744Z,1.62
2022-12-17T10:55:43.228Z,1.64
2022-12-17T10:57:11.264Z,1.65
2022-12-17T10:58:38.296Z,1.68
2022-12-17T10:59:58.683Z,1.70
2022-12-17T11:01:20.757Z,1.72
2022-12-17T11:02:46.839Z,1.72
2022-12-17T11:04:16.258Z,1.74
2022-12-17T11:05:45.296Z,1.79
2022-12-17T11:07:11.074Z,1.76
2022-12-17T11:08:33.471Z,1.72
2022-12-17T11:10:09.089Z,1.68
2022-12-17T11:11:32.303Z,1.67
2022-12-17T11:13:14.648Z,1.72
2022-12-17T11:14:35.054Z,1.76
2022-12-17T11:16:00.728Z,1.78
2022-12-17T11:17:26.113Z,1.82
2022-12-17T11:19:09.115Z,1.83
2022-12-17T11:20:47.072Z,1.80
2022-12-17T11:22:10.180Z,1.77
2022-12-17T11:23:36.818Z,1.76
2022-12-17T11:25:13.778Z,1.78
2022-12-17T11:26:36.653Z,1.83
2022-12-17T11:28:06.318Z,1.84
2022-12-17T11:29:31.291Z,1.85
2022-12-17T11:31:04.431Z,1.88
2022-12-17T11:32:57.650Z,1.93
2022-12-17T11:34:33.342Z,1.96
2022-12-17T11:36:05.612Z,1.99
2022-12-17T11:37:35.149Z,2.06
2022-12-17T11:38:59.385Z,2.11
2022-12-17T11:40:41.868Z,2.15
2022-12-17T11:42:14.870Z,2.20
2022-12-17T11:43:40.570Z,2.22
2022-12-17T11:45:14.442Z,2.19
2022-12-17T11:47:03.651Z,2.13
2022-12-17T11:48:29.162Z,2.14
2022-12-17T11:49:52.197Z,2.18
2022-12-17T11:51:21.263Z,2.21
2022-12-17T11:53:07.923Z,2.23
2022-12-17T11:54:48.280Z,2.24
2022-12-17T11:56:33.942Z,2.24
2022-12-17T11:58:15.702Z,2.24
2022-12-17T11:59:52.518Z,2.22
2022-12-17T12:01:42.244Z,2.22
2022-12-17T12:03:21.689Z,2.26
2022-12-17T12:05:16.668Z,2.27
2022-12-17T12:07:03.219Z,2.28
2022-12-17T12:08:31.484Z,2.31
2022-12-17T12:10:18.302Z,2.32
2022-12-17T12:12:05.065Z,2.31
2022-12-17T12:13:56.918Z,2.28
2022-12-17T12:15:35.860Z,2.25
2022-12-17T12:17:11.075Z,2.23
2022-12-17T12:18:38.472Z,2.24
2022-12-17T12:20:10.097Z,2.28
2022-12-17T12:21:50.342Z,2.28
2022-12-17T12:23:38.139Z,2.30
2022-12-17T12:25:13.756Z,2.30
2022-12-17T12:26:50.538Z,2.32
2022-12-17T12:28:16.886Z,2.33
2022-12-17T12:30:18.658Z,2.34
2022-12-17T12:31:57.421Z,2.32
2022-12-17T12:33:39.470Z,2.32
2022-12-17T12:35:01.082Z,2.33
2022-12-17T12:36:27.121Z,2.33
2022-12-17T12:37:57.168Z,2.35
2022-12-17T12:39:18.179Z,2.38
2022-12-17T12:40:53.527Z,2.42
2022-12-17T12:42:59.323Z,2.44
2022-12-17T12:44:30.911Z,2.42
2022-12-17T12:46:05.632Z,2.41
2022-12-17T12:47:36.704Z,2.43
2022-12-17T12:49:10.874Z,2.43
2022-12-17T12:51:00.485Z,2.47
2022-12-17T12:52:21.553Z,2.45
2022-12-17T12:53:41.733Z,2.40
2022-12-17T12:55:04.619Z,2.37
2022-12-17T12:56:45.871Z,2.39
2022-12-17T12:58:41.648Z,2.38
2022-12-17T13:00:07.871Z,2.37
2022-12-17T13:01:33.275Z,2.37
2022-12-17T13:02:54.016Z,2.36
2022-12-17T13:04:16.545Z,2.33
2022-12-17T13:05:38.704Z,2.30
2022-12-17T13:06:54.011Z,2.28
2022-12-17T13:08:23.765Z,2.28
2022-12-17T13:09:33.831Z,2.24
2022-12-17T13:10:37.068Z,2.21
2022-12-17T13:11:38.682Z,2.18
2022-12-17T13:12:45.680Z,2.15
2022-12-17T13:13:55.349Z,2.13
2022-12-17T13:15:05.938Z,2.13
2022-12-17T13:16:27.939Z,2.09
2022-12-17T13:17:37.207Z,2.03
2022-12-17T13:18:40.047Z,2.01
2022-12-17T13:19:58.247Z,1.99
2022-12-17T13:21:02.496Z,1.97
2022-12-17T13:22:23.387Z,1.96
2022-12-17T13:23:36.552Z,1.95
2022-12-17T13:24:38.580Z,1.93
2022-12-17T13:25:41.485Z,1.91
2022-12-17T13:26:44.569Z,1.90
2022-12-17T13:27:47.309Z,1.89
2022-12-17T13:29:01.776Z,1.89
2022-12-17T13:30:21.781Z,1.88
2022-12-17T13:31:29.663Z,1.89
2022-12-17T13:32:39.879Z,1.85
2022-12-17T13:33:47.471Z,1.83
2022-12-17T13:35:27.073Z,1.81
2022-12-17T13:36:46.564Z,1.76
2022-12-17T13:38:02.075Z,1.74
2022-12-17T13:39:25.701Z,1.72
2022-12-17T13:41:10.192Z,1.72
2022-12-17T13:42:19.562Z,1.70
2022-12-17T13:43:26.762Z,1.69
2022-12-17T13:44:39.651Z,1.70
2022-12-17T13:45:43.315Z,1.69
2022-12-17T13:46:49.592Z,1.69
2022-12-17T13:47:54.360Z,1.70
2022-12-17T13:49:00.654Z,1.67
2022-12-17T13:50:36.139Z,1.67
2022-12-17T13:51:38.382Z,1.66
2022-12-17T13:52:40.006Z,1.66
2022-12-17T13:53:52.263Z,1.67
2022-12-17T13:55:05.590Z,1.64
2022-12-17T13:56:09.788Z,1.63
2022-12-17T13:57:16.039Z,1.62
2022-12-17T13:58:22.562Z,1.59
2022-12-17T13:59:24.611Z,1.57
2022-12-17T14:00:29.000Z,1.55
2022-12-17T14:01:31.463Z,1.53
2022-12-17T14:02:38.350Z,1.50
2022-12-17T14:05:33.256Z,1.44
2022-12-17T14:06:37.757Z,1.39
2022-12-17T14:07:39.906Z,1.35
2022-12-17T14:08:41.907Z,1.34
2022-12-17T14:09:43.621Z,1.32
2022-12-17T14:11:13.831Z,1.32
2022-12-17T14:12:23.318Z,1.28
2022-12-17T14:13:25.034Z,1.26
2022-12-17T14:14:31.851Z,1.24
2022-12-17T14:15:34.168Z,1.23
2022-12-17T14:16:36.745Z,1.22
2022-12-17T14:17:44.417Z,1.22
2022-12-17T14:18:53.046Z,1.21
2022-12-17T14:20:02.018Z,1.17
2022-12-17T14:21:05.226Z,1.15
2022-12-17T14:22:14.814Z,1.13
2022-12-17T14:23:29.101Z,1.13
2022-12-17T14:24:31.049Z,1.12
2022-12-17T14:25:38.658Z,1.12
2022-12-17T14:26:51.038Z,1.12
2022-12-17T14:28:00.198Z,1.10
2022-12-17T14:29:12.857Z,1.10
2022-12-17T14:30:32.904Z,1.09
2022-12-17T14:31:35.590Z,1.06
2022-12-17T14:32:37.294Z,1.03
2022-12-17T14:33:39.727Z,1.02
2022-12-17T14:34:42.125Z,1.01
2022-12-17T14:35:51.634Z,0.99
2022-12-17T14:36:59.198Z,0.96
2022-12-17T14:38:02.175Z,0.92
2022-12-17T14:39:18.082Z,0.89
2022-12-17T14:40:21.536Z,0.84
2022-12-17T14:41:42.514Z,0.80
2022-12-17T14:42:44.105Z,0.76
2022-12-17T14:43:45.764Z,0.70
2022-12-17T14:44:50.843Z,0.69
2022-12-17T14:46:29.870Z,0.69
2022-12-17T14:47:34.849Z,0.67
2022-12-17T14:48:55.688Z,0.66
2022-12-17T14:50:06.113Z,0.63
2022-12-17T14:51:30.804Z,0.60
2022-12-17T14:52:45.225Z,0.59
2022-12-17T14:53:46.943Z,0.59
2022-12-17T14:54:48.587Z,0.60
2022-12-17T14:55:56.685Z,0.60
2022-12-17T14:57:00.024Z,0.60
2022-12-17T14:58:14.207Z,0.62
2022-12-17T14:59:31.068Z,0.63
2022-12-17T15:00:33.934Z,0.62
2022-12-17T15:01:35.899Z,0.62
2022-12-17T15:02:38.003Z,0.63
2022-12-17T15:03:42.618Z,0.64
2022-12-17T15:04:44.411Z,0.65
2022-12-17T15:05:51.449Z,0.66
2022-12-17T15:06:55.092Z,0.67
2022-12-17T15:07:56.712Z,0.67
2022-12-17T15:08:58.312Z,0.69
2022-12-17T15:10:00.141Z,0.71
2022-12-17T15:11:02.655Z,0.73
2022-12-17T15:12:04.809Z,0.76
2022-12-17T15:13:07.109Z,0.78
2022-12-17T15:14:08.711Z,0.79
2022-12-17T15:15:15.060Z,0.80
2022-12-17T15:16:16.833Z,0.82
2022-12-17T15:17:18.723Z,0.82
2022-12-17T15:18:20.300Z,0.82
2022-12-17T15:19:22.214Z,0.82
2022-12-17T15:20:23.814Z,0.81
2022-12-17T15:21:26.351Z,0.82
2022-12-17T15:22:28.053Z,0.80
2022-12-17T15:23:30.468Z,0.76
2022-12-17T15:24:31.994Z,0.76
2022-12-17T15:25:35.641Z,0.75
2022-12-17T15:26:39.350Z,0.75
2022-12-17T15:27:41.415Z,0.75
2022-12-17T15:28:43.674Z,0.75
2022-12-17T15:29:45.540Z,0.76
2022-12-17T15:30:48.907Z,0.77
2022-12-17T15:31:50.922Z,0.77
2022-12-17T15:32:52.904Z,0.79
2022-12-17T15:33:54.440Z,0.79
2022-12-17T15:34:56.137Z,0.79
2022-12-17T15:35:58.622Z,0.77
2022-12-17T15:37:00.392Z,0.75
2022-12-17T15:38:05.385Z,0.73
2022-12-17T15:39:08.003Z,0.72
2022-12-17T15:40:11.252Z,0.71
2022-12-17T15:41:31.874Z,0.71
2022-12-17T15:42:52.540Z,0.70
2022-12-17T15:43:54.699Z,0.70
2022-12-17T15:44:58.028Z,0.70
2022-12-17T15:46:00.898Z,0.68
2022-12-17T15:47:02.504Z,0.66
2022-12-17T15:48:04.761Z,0.62
2022-12-17T15:49:06.856Z,0.59
2022-12-17T15:50:09.035Z,0.56
2022-12-17T15:51:15.081Z,0.54
2022-12-17T15:52:19.622Z,0.54
2022-12-17T15:53:21.691Z,0.54
2022-12-17T15:54:24.590Z,0.53
2022-12-17T15:55:26.906Z,0.54
2022-12-17T15:56:28.702Z,0.55
2022-12-17T15:57:30.257Z,0.53
2022-12-17T15:58:32.009Z,0.52
2022-12-17T15:59:33.805Z,0.50
2022-12-17T16:00:35.550Z,0.49
2022-12-17T16:01:37.403Z,0.49
2022-12-17T16:02:39.379Z,0.50
2022-12-17T16:03:41.847Z,0.49
2022-12-17T16:04:43.702Z,0.49
2022-12-17T16:05:45.424Z,0.49
2022-12-17T16:06:47.974Z,0.49
2022-12-17T16:07:50.570Z,0.47
2022-12-17T16:08:52.256Z,0.45
2022-12-17T16:09:53.916Z,0.45
2022-12-17T16:10:55.578Z,0.43
2022-12-17T16:11:57.355Z,0.44
2022-12-17T16:12:58.947Z,0.44
2022-12-17T16:14:00.825Z,0.45
2022-12-17T16:15:03.211Z,0.47
2022-12-17T16:16:05.997Z,0.47
2022-12-17T16:17:07.628Z,0.49
2022-12-17T16:18:09.379Z,0.51
2022-12-17T16:19:10.966Z,0.51
2022-12-17T16:20:13.021Z,0.52
2022-12-17T16:21:14.590Z,0.53
2022-12-17T16:22:16.211Z,0.50
2022-12-17T16:23:19.623Z,0.48
2022-12-17T16:24:21.158Z,0.47
2022-12-17T16:25:22.914Z,0.47
2022-12-17T16:26:24.517Z,0.44
2022-12-17T16:27:26.149Z,0.44
2022-12-17T16:28:28.419Z,0.43
2022-12-17T16:29:30.320Z,0.43
2022-12-17T16:30:32.261Z,0.42
2022-12-17T16:31:34.241Z,0.42
2022-12-17T16:32:36.920Z,0.41
2022-12-17T16:33:40.732Z,0.40
2022-12-17T16:34:43.186Z,0.38
2022-12-17T16:35:53.643Z,0.35
2022-12-17T16:36:55.174Z,0.31
2022-12-17T16:37:56.867Z,0.28
2022-12-17T16:38:58.466Z,0.25
2022-12-17T16:40:00.664Z,0.24
2022-12-17T16:41:03.095Z,0.22
2022-12-17T16:42:04.736Z,0.20
2022-12-17T16:43:06.374Z,0.18
2022-12-17T16:44:07.923Z,0.14
2022-12-17T16:45:09.741Z,0.10
2022-12-17T16:46:30.144Z,0.06
2022-12-17T16:47:31.730Z,0.03
2022-12-17T16:48:38.095Z,0.03
2022-12-17T16:49:39.950Z,0.01
2022-12-17T16:50:41.721Z,0.03
2022-12-17T16:51:45.176Z,0.03
2022-12-17T16:52:46.902Z,0.01
2022-12-17T16:53:48.428Z,-0.01
2022-12-17T16:54:49.994Z,-0.04
2022-12-17T16:55:51.564Z,-0.05
2022-12-17T16:56:54.072Z,-0.06
2022-12-17T16:57:56.105Z,-0.09
2022-12-17T16:58:57.763Z,-0.11
2022-12-17T16:59:59.639Z,-0.12
2022-12-17T17:01:01.306Z,-0.13
2022-12-17T17:02:03.081Z,-0.12
2022-12-17T17:03:06.152Z,-0.12
2022-12-17T17:04:09.184Z,-0.11
2022-12-17T17:05:10.833Z,-0.12
2022-12-17T17:06:12.525Z,-0.12
2022-12-17T17:07:14.379Z,-0.13
2022-12-17T17:08:16.069Z,-0.14
2022-12-17T17:09:18.495Z,-0.16
2022-12-17T17:10:21.227Z,-0.17
2022-12-17T17:11:24.712Z,-0.18
2022-12-17T17:12:26.735Z,-0.20
2022-12-17T17:13:28.254Z,-0.22
2022-12-17T17:14:29.820Z,-0.24
2022-12-17T17:15:31.841Z,-0.26
2022-12-17T17:16:34.388Z,-0.28
2022-12-17T17:17:53.880Z,-0.29
2022-12-17T17:18:57.569Z,-0.31
2022-12-17T17:19:59.095Z,-0.34
2022-12-17T17:21:19.088Z,-0.37
2022-12-17T17:22:20.659Z,-0.39
2022-12-17T17:23:22.458Z,-0.41